sensor_id;sensor_type;location;lat;lon;timestamp;P1;durP1;ratioP1;P2;durP2;ratioP2
73585;SDS011;61865;50.232;18.614;2022-12-07T00:00:09;31.27;;;18.65;;
73585;SDS011;61865;50.232;18.614;2022-12-07T00:02:32;26.35;;;16.27;;
73585;SDS011;61865;50.232;18.614;2022-12-07T00:04:55;28.77;;;17.05;;
73585;SDS011;61865;50.232;18.614;2022-12-07T00:07:17;30.45;;;16.88;;
73585;SDS011;61865;50.232;18.614;2022-12-07T00:09:39;33.72;;;17.88;;
73585;SDS011;61865;50.232;18.614;2022-12-07T00:12:01;29.42;;;17.70;;
73585;SDS011;61865;50.232;18.614;2022-12-07T00:14:23;29.23;;;18.48;;
73585;SDS011;61865;50.232;18.614;2022-12-07T00:16:46;29.92;;;18.80;;
73585;SDS011;61865;50.232;18.614;2022-12-07T00:19:10;29.10;;;17.92;;
73585;SDS011;61865;50.232;18.614;2022-12-07T00:21:35;27.40;;;17.58;;
73585;SDS011;61865;50.232;18.614;2022-12-07T00:23:57;26.13;;;18.25;;
73585;SDS011;61865;50.232;18.614;2022-12-07T00:26:20;27.42;;;17.88;;
73585;SDS011;61865;50.232;18.614;2022-12-07T00:28:44;35.95;;;21.40;;
73585;SDS011;61865;50.232;18.614;2022-12-07T00:31:09;39.72;;;23.88;;
73585;SDS011;61865;50.232;18.614;2022-12-07T00:33:32;39.35;;;22.02;;
73585;SDS011;61865;50.232;18.614;2022-12-07T00:35:55;39.22;;;20.80;;
73585;SDS011;61865;50.232;18.614;2022-12-07T00:38:18;30.55;;;19.65;;
73585;SDS011;61865;50.232;18.614;2022-12-07T00:40:41;31.70;;;17.88;;
73585;SDS011;61865;50.232;18.614;2022-12-07T00:43:03;38.63;;;20.77;;
73585;SDS011;61865;50.232;18.614;2022-12-07T00:45:25;34.67;;;21.45;;
73585;SDS011;61865;50.232;18.614;2022-12-07T00:47:47;34.35;;;21.38;;
73585;SDS011;61865;50.232;18.614;2022-12-07T00:50:09;39.67;;;21.92;;
73585;SDS011;61865;50.232;18.614;2022-12-07T00:52:31;38.72;;;21.73;;
73585;SDS011;61865;50.232;18.614;2022-12-07T00:54:54;32.80;;;18.42;;
73585;SDS011;61865;50.232;18.614;2022-12-07T00:57:16;26.67;;;16.80;;
73585;SDS011;61865;50.232;18.614;2022-12-07T00:59:38;28.52;;;17.25;;
73585;SDS011;61865;50.232;18.614;2022-12-07T01:02:00;35.63;;;17.42;;
73585;SDS011;61865;50.232;18.614;2022-12-07T01:04:22;28.85;;;17.98;;
73585;SDS011;61865;50.232;18.614;2022-12-07T01:06:44;25.20;;;16.20;;
73585;SDS011;61865;50.232;18.614;2022-12-07T01:09:06;29.38;;;18.52;;
73585;SDS011;61865;50.232;18.614;2022-12-07T01:11:29;36.13;;;21.38;;
73585;SDS011;61865;50.232;18.614;2022-12-07T01:13:52;29.98;;;17.40;;
73585;SDS011;61865;50.232;18.614;2022-12-07T01:16:15;34.10;;;19.15;;
73585;SDS011;61865;50.232;18.614;2022-12-07T01:18:38;38.45;;;18.90;;
73585;SDS011;61865;50.232;18.614;2022-12-07T01:21:00;36.05;;;18.63;;
73585;SDS011;61865;50.232;18.614;2022-12-07T01:23:24;27.88;;;17.60;;
73585;SDS011;61865;50.232;18.614;2022-12-07T01:25:53;30.77;;;18.58;;
73585;SDS011;61865;50.232;18.614;2022-12-07T01:28:17;40.22;;;21.95;;
73585;SDS011;61865;50.232;18.614;2022-12-07T01:30:39;34.72;;;19.52;;
73585;SDS011;61865;50.232;18.614;2022-12-07T01:33:01;39.20;;;24.05;;
73585;SDS011;61865;50.232;18.614;2022-12-07T01:35:22;40.67;;;25.08;;
73585;SDS011;61865;50.232;18.614;2022-12-07T01:37:44;41.63;;;26.10;;
73585;SDS011;61865;50.232;18.614;2022-12-07T01:40:07;38.80;;;24.90;;
73585;SDS011;61865;50.232;18.614;2022-12-07T01:42:31;34.08;;;21.33;;
73585;SDS011;61865;50.232;18.614;2022-12-07T01:47:50;34.83;;;19.05;;
73585;SDS011;61865;50.232;18.614;2022-12-07T01:50:15;30.83;;;19.60;;
73585;SDS011;61865;50.232;18.614;2022-12-07T01:52:37;28.55;;;18.83;;
73585;SDS011;61865;50.232;18.614;2022-12-07T01:55:00;31.67;;;20.38;;
73585;SDS011;61865;50.232;18.614;2022-12-07T01:57:25;31.45;;;19.40;;
73585;SDS011;61865;50.232;18.614;2022-12-07T01:59:48;30.77;;;18.55;;
73585;SDS011;61865;50.232;18.614;2022-12-07T02:02:15;33.88;;;18.23;;
73585;SDS011;61865;50.232;18.614;2022-12-07T02:04:41;32.22;;;17.55;;
73585;SDS011;61865;50.232;18.614;2022-12-07T02:07:04;25.95;;;16.13;;
73585;SDS011;61865;50.232;18.614;2022-12-07T02:09:28;27.05;;;16.95;;
73585;SDS011;61865;50.232;18.614;2022-12-07T02:11:50;33.22;;;17.92;;
73585;SDS011;61865;50.232;18.614;2022-12-07T02:14:13;32.90;;;16.77;;
73585;SDS011;61865;50.232;18.614;2022-12-07T02:16:36;28.98;;;17.73;;
73585;SDS011;61865;50.232;18.614;2022-12-07T02:19:14;28.45;;;16.55;;
73585;SDS011;61865;50.232;18.614;2022-12-07T02:21:59;31.83;;;16.77;;
73585;SDS011;61865;50.232;18.614;2022-12-07T02:24:42;29.40;;;16.30;;
73585;SDS011;61865;50.232;18.614;2022-12-07T02:27:22;26.25;;;15.88;;
73585;SDS011;61865;50.232;18.614;2022-12-07T02:30:00;28.95;;;16.30;;
73585;SDS011;61865;50.232;18.614;2022-12-07T02:32:26;26.45;;;15.93;;
73585;SDS011;61865;50.232;18.614;2022-12-07T02:34:55;26.30;;;15.60;;
73585;SDS011;61865;50.232;18.614;2022-12-07T02:37:27;24.88;;;16.65;;
73585;SDS011;61865;50.232;18.614;2022-12-07T02:39:55;26.37;;;16.23;;
73585;SDS011;61865;50.232;18.614;2022-12-07T02:42:22;27.95;;;14.95;;
73585;SDS011;61865;50.232;18.614;2022-12-07T02:44:46;30.30;;;15.65;;
73585;SDS011;61865;50.232;18.614;2022-12-07T02:47:11;31.90;;;16.60;;
73585;SDS011;61865;50.232;18.614;2022-12-07T02:49:37;26.10;;;15.52;;
73585;SDS011;61865;50.232;18.614;2022-12-07T02:52:00;24.35;;;14.35;;
73585;SDS011;61865;50.232;18.614;2022-12-07T02:54:22;23.90;;;14.05;;
73585;SDS011;61865;50.232;18.614;2022-12-07T02:56:45;21.95;;;13.43;;
73585;SDS011;61865;50.232;18.614;2022-12-07T02:59:12;21.77;;;13.75;;
73585;SDS011;61865;50.232;18.614;2022-12-07T03:01:43;21.23;;;13.25;;
73585;SDS011;61865;50.232;18.614;2022-12-07T03:04:18;19.67;;;12.93;;
73585;SDS011;61865;50.232;18.614;2022-12-07T03:06:53;22.05;;;13.73;;
73585;SDS011;61865;50.232;18.614;2022-12-07T03:09:22;23.98;;;14.13;;
73585;SDS011;61865;50.232;18.614;2022-12-07T03:11:55;23.05;;;13.05;;
73585;SDS011;61865;50.232;18.614;2022-12-07T03:14:29;19.45;;;12.63;;
73585;SDS011;61865;50.232;18.614;2022-12-07T03:16:55;21.00;;;12.77;;
73585;SDS011;61865;50.232;18.614;2022-12-07T03:19:24;20.08;;;12.52;;
73585;SDS011;61865;50.232;18.614;2022-12-07T03:21:49;20.45;;;12.13;;
73585;SDS011;61865;50.232;18.614;2022-12-07T03:24:15;21.60;;;13.13;;
73585;SDS011;61865;50.232;18.614;2022-12-07T03:26:41;17.88;;;12.00;;
73585;SDS011;61865;50.232;18.614;2022-12-07T03:29:08;24.45;;;12.85;;
73585;SDS011;61865;50.232;18.614;2022-12-07T03:31:38;21.88;;;13.82;;
73585;SDS011;61865;50.232;18.614;2022-12-07T03:34:05;28.77;;;19.50;;
73585;SDS011;61865;50.232;18.614;2022-12-07T03:36:31;19.20;;;12.70;;
73585;SDS011;61865;50.232;18.614;2022-12-07T03:39:00;20.38;;;12.15;;
73585;SDS011;61865;50.232;18.614;2022-12-07T03:41:29;20.35;;;11.35;;
73585;SDS011;61865;50.232;18.614;2022-12-07T03:43:54;18.40;;;11.35;;
73585;SDS011;61865;50.232;18.614;2022-12-07T03:46:17;16.77;;;11.27;;
73585;SDS011;61865;50.232;18.614;2022-12-07T03:48:46;20.70;;;12.05;;
73585;SDS011;61865;50.232;18.614;2022-12-07T03:51:18;23.95;;;13.05;;
73585;SDS011;61865;50.232;18.614;2022-12-07T03:53:48;18.10;;;11.63;;
73585;SDS011;61865;50.232;18.614;2022-12-07T03:56:13;18.85;;;10.80;;
73585;SDS011;61865;50.232;18.614;2022-12-07T03:58:36;19.65;;;11.98;;
73585;SDS011;61865;50.232;18.614;2022-12-07T04:00:59;16.38;;;11.00;;
73585;SDS011;61865;50.232;18.614;2022-12-07T04:03:23;19.27;;;11.70;;
73585;SDS011;61865;50.232;18.614;2022-12-07T04:05:45;19.15;;;10.05;;
73585;SDS011;61865;50.232;18.614;2022-12-07T04:08:07;16.33;;;10.90;;
73585;SDS011;61865;50.232;18.614;2022-12-07T04:10:31;17.95;;;11.43;;
73585;SDS011;61865;50.232;18.614;2022-12-07T04:12:53;24.85;;;13.05;;
73585;SDS011;61865;50.232;18.614;2022-12-07T04:15:15;19.80;;;12.70;;
73585;SDS011;61865;50.232;18.614;2022-12-07T04:17:37;20.20;;;12.52;;
73585;SDS011;61865;50.232;18.614;2022-12-07T04:19:59;38.55;;;16.75;;
73585;SDS011;61865;50.232;18.614;2022-12-07T04:22:21;27.65;;;15.13;;
73585;SDS011;61865;50.232;18.614;2022-12-07T04:24:43;22.60;;;13.30;;
73585;SDS011;61865;50.232;18.614;2022-12-07T04:27:06;22.55;;;12.82;;
73585;SDS011;61865;50.232;18.614;2022-12-07T04:29:28;24.35;;;13.93;;
73585;SDS011;61865;50.232;18.614;2022-12-07T04:31:50;27.70;;;13.98;;
73585;SDS011;61865;50.232;18.614;2022-12-07T04:34:13;24.13;;;12.80;;
73585;SDS011;61865;50.232;18.614;2022-12-07T04:36:35;23.88;;;13.63;;
73585;SDS011;61865;50.232;18.614;2022-12-07T04:38:57;21.55;;;12.75;;
73585;SDS011;61865;50.232;18.614;2022-12-07T04:41:19;23.17;;;13.65;;
73585;SDS011;61865;50.232;18.614;2022-12-07T04:43:48;23.30;;;14.90;;
73585;SDS011;61865;50.232;18.614;2022-12-07T04:46:10;20.75;;;13.73;;
73585;SDS011;61865;50.232;18.614;2022-12-07T04:48:32;20.35;;;12.93;;
73585;SDS011;61865;50.232;18.614;2022-12-07T04:50:54;22.27;;;13.43;;
73585;SDS011;61865;50.232;18.614;2022-12-07T04:53:16;24.50;;;13.13;;
73585;SDS011;61865;50.232;18.614;2022-12-07T04:55:38;25.10;;;14.57;;
73585;SDS011;61865;50.232;18.614;2022-12-07T04:58:00;21.80;;;13.35;;
73585;SDS011;61865;50.232;18.614;2022-12-07T05:00:23;24.38;;;13.40;;
73585;SDS011;61865;50.232;18.614;2022-12-07T05:02:45;24.27;;;14.27;;
73585;SDS011;61865;50.232;18.614;2022-12-07T05:05:07;27.80;;;14.38;;
73585;SDS011;61865;50.232;18.614;2022-12-07T05:07:29;35.38;;;18.30;;
73585;SDS011;61865;50.232;18.614;2022-12-07T05:09:51;30.67;;;16.63;;
73585;SDS011;61865;50.232;18.614;2022-12-07T05:12:13;34.53;;;17.38;;
73585;SDS011;61865;50.232;18.614;2022-12-07T05:14:35;31.92;;;15.40;;
73585;SDS011;61865;50.232;18.614;2022-12-07T05:16:58;23.35;;;14.13;;
73585;SDS011;61865;50.232;18.614;2022-12-07T05:19:20;20.17;;;13.98;;
73585;SDS011;61865;50.232;18.614;2022-12-07T05:21:42;22.67;;;14.70;;
73585;SDS011;61865;50.232;18.614;2022-12-07T05:24:05;21.98;;;14.88;;
73585;SDS011;61865;50.232;18.614;2022-12-07T05:28:50;25.30;;;14.20;;
73585;SDS011;61865;50.232;18.614;2022-12-07T05:31:12;31.83;;;19.05;;
73585;SDS011;61865;50.232;18.614;2022-12-07T05:33:36;42.40;;;23.48;;
73585;SDS011;61865;50.232;18.614;2022-12-07T05:35:58;52.03;;;27.95;;
73585;SDS011;61865;50.232;18.614;2022-12-07T05:38:25;62.65;;;31.13;;
73585;SDS011;61865;50.232;18.614;2022-12-07T05:40:47;42.30;;;25.70;;
73585;SDS011;61865;50.232;18.614;2022-12-07T05:43:09;39.00;;;24.00;;
73585;SDS011;61865;50.232;18.614;2022-12-07T05:45:31;30.42;;;19.42;;
73585;SDS011;61865;50.232;18.614;2022-12-07T05:47:53;29.27;;;20.70;;
73585;SDS011;61865;50.232;18.614;2022-12-07T05:50:16;20.63;;;14.35;;
73585;SDS011;61865;50.232;18.614;2022-12-07T05:52:38;17.85;;;11.27;;
73585;SDS011;61865;50.232;18.614;2022-12-07T05:55:00;17.45;;;11.50;;
73585;SDS011;61865;50.232;18.614;2022-12-07T05:57:22;22.67;;;13.98;;
73585;SDS011;61865;50.232;18.614;2022-12-07T05:59:44;20.40;;;11.82;;
73585;SDS011;61865;50.232;18.614;2022-12-07T06:02:06;20.60;;;12.85;;
73585;SDS011;61865;50.232;18.614;2022-12-07T06:04:31;21.10;;;12.57;;
73585;SDS011;61865;50.232;18.614;2022-12-07T06:06:56;25.77;;;14.95;;
73585;SDS011;61865;50.232;18.614;2022-12-07T06:09:18;22.80;;;13.52;;
73585;SDS011;61865;50.232;18.614;2022-12-07T06:11:40;23.65;;;13.93;;
73585;SDS011;61865;50.232;18.614;2022-12-07T06:14:20;26.30;;;14.50;;
73585;SDS011;61865;50.232;18.614;2022-12-07T06:16:42;21.35;;;13.63;;
73585;SDS011;61865;50.232;18.614;2022-12-07T06:19:04;28.10;;;14.63;;
73585;SDS011;61865;50.232;18.614;2022-12-07T06:21:26;20.98;;;13.90;;
73585;SDS011;61865;50.232;18.614;2022-12-07T06:23:49;21.98;;;13.65;;
73585;SDS011;61865;50.232;18.614;2022-12-07T06:26:11;21.77;;;13.90;;
73585;SDS011;61865;50.232;18.614;2022-12-07T06:28:33;22.05;;;13.43;;
73585;SDS011;61865;50.232;18.614;2022-12-07T06:30:56;23.45;;;14.00;;
73585;SDS011;61865;50.232;18.614;2022-12-07T06:33:19;23.17;;;13.60;;
73585;SDS011;61865;50.232;18.614;2022-12-07T06:35:41;16.83;;;12.88;;
73585;SDS011;61865;50.232;18.614;2022-12-07T06:38:02;21.88;;;13.70;;
73585;SDS011;61865;50.232;18.614;2022-12-07T06:40:26;25.92;;;15.65;;
73585;SDS011;61865;50.232;18.614;2022-12-07T06:42:48;25.48;;;16.73;;
73585;SDS011;61865;50.232;18.614;2022-12-07T06:45:10;24.90;;;15.13;;
73585;SDS011;61865;50.232;18.614;2022-12-07T06:47:35;25.77;;;15.30;;
73585;SDS011;61865;50.232;18.614;2022-12-07T06:49:57;24.33;;;15.02;;
73585;SDS011;61865;50.232;18.614;2022-12-07T06:52:19;43.95;;;19.55;;
73585;SDS011;61865;50.232;18.614;2022-12-07T06:54:42;38.75;;;21.52;;
73585;SDS011;61865;50.232;18.614;2022-12-07T06:57:06;39.28;;;20.30;;
73585;SDS011;61865;50.232;18.614;2022-12-07T06:59:31;26.98;;;15.63;;
73585;SDS011;61865;50.232;18.614;2022-12-07T07:01:53;22.90;;;13.75;;
73585;SDS011;61865;50.232;18.614;2022-12-07T07:04:15;23.45;;;14.85;;
73585;SDS011;61865;50.232;18.614;2022-12-07T07:06:37;23.50;;;14.07;;
73585;SDS011;61865;50.232;18.614;2022-12-07T07:09:02;23.50;;;13.23;;
73585;SDS011;61865;50.232;18.614;2022-12-07T07:11:25;23.20;;;13.85;;
73585;SDS011;61865;50.232;18.614;2022-12-07T07:13:48;24.90;;;13.80;;
73585;SDS011;61865;50.232;18.614;2022-12-07T07:16:10;29.20;;;14.30;;
73585;SDS011;61865;50.232;18.614;2022-12-07T07:18:32;21.45;;;11.65;;
73585;SDS011;61865;50.232;18.614;2022-12-07T07:20:54;19.13;;;13.20;;
73585;SDS011;61865;50.232;18.614;2022-12-07T07:23:17;23.23;;;13.48;;
73585;SDS011;61865;50.232;18.614;2022-12-07T07:25:39;21.42;;;13.48;;
73585;SDS011;61865;50.232;18.614;2022-12-07T07:28:04;21.50;;;12.50;;
73585;SDS011;61865;50.232;18.614;2022-12-07T07:30:27;20.13;;;13.23;;
73585;SDS011;61865;50.232;18.614;2022-12-07T07:32:49;20.92;;;12.05;;
73585;SDS011;61865;50.232;18.614;2022-12-07T07:35:11;19.55;;;12.65;;
73585;SDS011;61865;50.232;18.614;2022-12-07T07:37:34;23.17;;;12.43;;
73585;SDS011;61865;50.232;18.614;2022-12-07T07:39:56;30.08;;;16.95;;
73585;SDS011;61865;50.232;18.614;2022-12-07T07:42:17;30.60;;;17.60;;
73585;SDS011;61865;50.232;18.614;2022-12-07T07:44:39;22.88;;;15.32;;
73585;SDS011;61865;50.232;18.614;2022-12-07T07:47:03;22.70;;;13.40;;
73585;SDS011;61865;50.232;18.614;2022-12-07T07:49:25;17.95;;;11.23;;
73585;SDS011;61865;50.232;18.614;2022-12-07T07:51:47;15.07;;;9.23;;
73585;SDS011;61865;50.232;18.614;2022-12-07T07:54:09;14.23;;;9.75;;
73585;SDS011;61865;50.232;18.614;2022-12-07T07:56:31;15.27;;;9.93;;
73585;SDS011;61865;50.232;18.614;2022-12-07T07:58:53;20.02;;;10.75;;
73585;SDS011;61865;50.232;18.614;2022-12-07T08:01:16;26.95;;;13.75;;
73585;SDS011;61865;50.232;18.614;2022-12-07T08:03:41;29.98;;;15.80;;
73585;SDS011;61865;50.232;18.614;2022-12-07T08:06:03;27.20;;;15.23;;
73585;SDS011;61865;50.232;18.614;2022-12-07T08:08:25;24.55;;;15.32;;
73585;SDS011;61865;50.232;18.614;2022-12-07T08:10:47;17.98;;;11.98;;
73585;SDS011;61865;50.232;18.614;2022-12-07T08:13:09;15.15;;;10.90;;
73585;SDS011;61865;50.232;18.614;2022-12-07T08:15:36;20.33;;;11.27;;
73585;SDS011;61865;50.232;18.614;2022-12-07T08:17:59;23.02;;;13.05;;
73585;SDS011;61865;50.232;18.614;2022-12-07T08:20:22;20.73;;;12.05;;
73585;SDS011;61865;50.232;18.614;2022-12-07T08:22:44;20.45;;;11.57;;
73585;SDS011;61865;50.232;18.614;2022-12-07T08:25:06;19.35;;;11.50;;
73585;SDS011;61865;50.232;18.614;2022-12-07T08:27:29;18.27;;;10.85;;
73585;SDS011;61865;50.232;18.614;2022-12-07T08:29:51;17.80;;;9.75;;
73585;SDS011;61865;50.232;18.614;2022-12-07T08:32:12;21.73;;;10.13;;
73585;SDS011;61865;50.232;18.614;2022-12-07T08:34:34;15.73;;;9.77;;
73585;SDS011;61865;50.232;18.614;2022-12-07T08:36:58;16.35;;;10.13;;
73585;SDS011;61865;50.232;18.614;2022-12-07T08:39:20;16.20;;;10.52;;
73585;SDS011;61865;50.232;18.614;2022-12-07T08:41:42;18.52;;;11.27;;
73585;SDS011;61865;50.232;18.614;2022-12-07T08:44:07;22.23;;;13.55;;
73585;SDS011;61865;50.232;18.614;2022-12-07T08:46:30;22.35;;;12.15;;
73585;SDS011;61865;50.232;18.614;2022-12-07T08:48:57;22.25;;;11.80;;
73585;SDS011;61865;50.232;18.614;2022-12-07T08:51:24;20.45;;;12.90;;
73585;SDS011;61865;50.232;18.614;2022-12-07T08:53:48;24.23;;;15.20;;
73585;SDS011;61865;50.232;18.614;2022-12-07T08:56:15;22.95;;;14.57;;
73585;SDS011;61865;50.232;18.614;2022-12-07T08:58:37;24.73;;;14.55;;
73585;SDS011;61865;50.232;18.614;2022-12-07T09:01:00;21.88;;;13.65;;
73585;SDS011;61865;50.232;18.614;2022-12-07T09:03:25;18.60;;;11.98;;
73585;SDS011;61865;50.232;18.614;2022-12-07T09:05:49;29.48;;;16.48;;
73585;SDS011;61865;50.232;18.614;2022-12-07T09:08:13;32.65;;;19.15;;
73585;SDS011;61865;50.232;18.614;2022-12-07T09:10:40;28.42;;;16.08;;
73585;SDS011;61865;50.232;18.614;2022-12-07T09:13:02;26.05;;;14.85;;
73585;SDS011;61865;50.232;18.614;2022-12-07T09:15:24;25.83;;;14.80;;
73585;SDS011;61865;50.232;18.614;2022-12-07T09:17:47;25.63;;;15.18;;
73585;SDS011;61865;50.232;18.614;2022-12-07T09:20:09;25.60;;;15.52;;
73585;SDS011;61865;50.232;18.614;2022-12-07T09:22:32;29.73;;;16.00;;
73585;SDS011;61865;50.232;18.614;2022-12-07T09:24:54;30.85;;;17.70;;
73585;SDS011;61865;50.232;18.614;2022-12-07T09:27:17;32.70;;;17.65;;
73585;SDS011;61865;50.232;18.614;2022-12-07T09:29:39;37.90;;;19.08;;
73585;SDS011;61865;50.232;18.614;2022-12-07T09:32:01;30.42;;;17.70;;
73585;SDS011;61865;50.232;18.614;2022-12-07T09:34:23;28.05;;;16.67;;
73585;SDS011;61865;50.232;18.614;2022-12-07T09:36:46;30.60;;;16.65;;
73585;SDS011;61865;50.232;18.614;2022-12-07T09:39:08;31.95;;;15.63;;
73585;SDS011;61865;50.232;18.614;2022-12-07T09:41:30;25.17;;;15.07;;
73585;SDS011;61865;50.232;18.614;2022-12-07T09:43:56;29.60;;;14.95;;
73585;SDS011;61865;50.232;18.614;2022-12-07T09:46:24;21.83;;;13.93;;
73585;SDS011;61865;50.232;18.614;2022-12-07T09:53:40;35.30;;;21.63;;
73585;SDS011;61865;50.232;18.614;2022-12-07T09:56:03;26.70;;;16.17;;
73585;SDS011;61865;50.232;18.614;2022-12-07T09:58:26;28.02;;;15.38;;
73585;SDS011;61865;50.232;18.614;2022-12-07T10:00:53;22.23;;;12.50;;
73585;SDS011;61865;50.232;18.614;2022-12-07T10:03:17;23.55;;;12.38;;
73585;SDS011;61865;50.232;18.614;2022-12-07T10:05:40;21.02;;;11.40;;
73585;SDS011;61865;50.232;18.614;2022-12-07T10:08:05;22.05;;;12.20;;
73585;SDS011;61865;50.232;18.614;2022-12-07T10:10:30;19.45;;;12.43;;
73585;SDS011;61865;50.232;18.614;2022-12-07T10:12:54;21.40;;;13.82;;
73585;SDS011;61865;50.232;18.614;2022-12-07T10:15:18;22.88;;;12.13;;
73585;SDS011;61865;50.232;18.614;2022-12-07T10:17:47;16.42;;;10.10;;
73585;SDS011;61865;50.232;18.614;2022-12-07T10:20:14;18.33;;;9.90;;
73585;SDS011;61865;50.232;18.614;2022-12-07T10:22:43;16.70;;;9.48;;
73585;SDS011;61865;50.232;18.614;2022-12-07T10:25:18;20.63;;;9.93;;
73585;SDS011;61865;50.232;18.614;2022-12-07T10:27:41;20.27;;;9.43;;
73585;SDS011;61865;50.232;18.614;2022-12-07T10:30:06;16.13;;;9.48;;
73585;SDS011;61865;50.232;18.614;2022-12-07T10:32:31;18.65;;;9.48;;
73585;SDS011;61865;50.232;18.614;2022-12-07T10:35:15;17.30;;;10.15;;
73585;SDS011;61865;50.232;18.614;2022-12-07T10:37:41;13.18;;;8.63;;
73585;SDS011;61865;50.232;18.614;2022-12-07T10:40:18;16.48;;;8.63;;
73585;SDS011;61865;50.232;18.614;2022-12-07T10:42:46;15.82;;;8.77;;
73585;SDS011;61865;50.232;18.614;2022-12-07T10:45:23;22.35;;;8.85;;
73585;SDS011;61865;50.232;18.614;2022-12-07T10:47:45;16.38;;;9.13;;
73585;SDS011;61865;50.232;18.614;2022-12-07T10:50:28;14.18;;;8.25;;
73585;SDS011;61865;50.232;18.614;2022-12-07T10:53:05;18.30;;;9.68;;
73585;SDS011;61865;50.232;18.614;2022-12-07T10:55:40;16.25;;;9.85;;
73585;SDS011;61865;50.232;18.614;2022-12-07T10:58:18;21.95;;;10.30;;
73585;SDS011;61865;50.232;18.614;2022-12-07T11:00:50;15.55;;;8.35;;
73585;SDS011;61865;50.232;18.614;2022-12-07T11:03:24;13.95;;;8.30;;
73585;SDS011;61865;50.232;18.614;2022-12-07T11:06:05;13.43;;;8.25;;
73585;SDS011;61865;50.232;18.614;2022-12-07T11:08:39;14.13;;;8.38;;
73585;SDS011;61865;50.232;18.614;2022-12-07T11:11:22;12.85;;;7.85;;
73585;SDS011;61865;50.232;18.614;2022-12-07T11:13:52;14.07;;;8.02;;
73585;SDS011;61865;50.232;18.614;2022-12-07T11:16:21;14.48;;;7.75;;
73585;SDS011;61865;50.232;18.614;2022-12-07T11:18:52;16.65;;;8.40;;
73585;SDS011;61865;50.232;18.614;2022-12-07T11:21:30;16.23;;;10.02;;
73585;SDS011;61865;50.232;18.614;2022-12-07T11:24:01;20.60;;;10.63;;
73585;SDS011;61865;50.232;18.614;2022-12-07T11:26:30;14.18;;;7.90;;
73585;SDS011;61865;50.232;18.614;2022-12-07T11:29:11;12.85;;;8.40;;
73585;SDS011;61865;50.232;18.614;2022-12-07T11:31:50;11.63;;;7.20;;
73585;SDS011;61865;50.232;18.614;2022-12-07T11:34:28;9.18;;;5.63;;
73585;SDS011;61865;50.232;18.614;2022-12-07T11:36:59;14.85;;;8.05;;
73585;SDS011;61865;50.232;18.614;2022-12-07T11:39:26;8.95;;;6.03;;
73585;SDS011;61865;50.232;18.614;2022-12-07T11:41:52;10.90;;;6.43;;
73585;SDS011;61865;50.232;18.614;2022-12-07T11:44:21;9.40;;;5.90;;
73585;SDS011;61865;50.232;18.614;2022-12-07T11:46:52;14.02;;;7.32;;
73585;SDS011;61865;50.232;18.614;2022-12-07T11:49:20;13.77;;;7.63;;
73585;SDS011;61865;50.232;18.614;2022-12-07T11:51:49;11.85;;;8.05;;
73585;SDS011;61865;50.232;18.614;2022-12-07T11:54:18;9.65;;;6.78;;
73585;SDS011;61865;50.232;18.614;2022-12-07T11:56:44;9.90;;;7.03;;
73585;SDS011;61865;50.232;18.614;2022-12-07T11:59:10;8.70;;;6.13;;
73585;SDS011;61865;50.232;18.614;2022-12-07T12:01:44;10.20;;;6.55;;
73585;SDS011;61865;50.232;18.614;2022-12-07T12:04:17;13.45;;;7.80;;
73585;SDS011;61865;50.232;18.614;2022-12-07T12:06:52;10.57;;;5.80;;
73585;SDS011;61865;50.232;18.614;2022-12-07T12:09:15;7.32;;;5.30;;
73585;SDS011;61865;50.232;18.614;2022-12-07T12:11:47;12.13;;;5.95;;
73585;SDS011;61865;50.232;18.614;2022-12-07T12:14:32;8.43;;;5.95;;
73585;SDS011;61865;50.232;18.614;2022-12-07T12:17:09;10.20;;;6.10;;
73585;SDS011;61865;50.232;18.614;2022-12-07T12:20:00;11.30;;;5.88;;
73585;SDS011;61865;50.232;18.614;2022-12-07T12:22:29;9.60;;;5.80;;
73585;SDS011;61865;50.232;18.614;2022-12-07T12:24:58;10.40;;;7.35;;
73585;SDS011;61865;50.232;18.614;2022-12-07T12:27:21;7.75;;;5.97;;
73585;SDS011;61865;50.232;18.614;2022-12-07T12:29:50;9.13;;;6.20;;
73585;SDS011;61865;50.232;18.614;2022-12-07T12:32:16;10.05;;;6.47;;
73585;SDS011;61865;50.232;18.614;2022-12-07T12:34:41;8.45;;;5.10;;
73585;SDS011;61865;50.232;18.614;2022-12-07T12:43:02;13.00;;;5.32;;
73585;SDS011;61865;50.232;18.614;2022-12-07T12:46:38;6.75;;;4.43;;
73585;SDS011;61865;50.232;18.614;2022-12-07T12:51:59;8.32;;;5.65;;
73585;SDS011;61865;50.232;18.614;2022-12-07T12:54:23;7.68;;;5.22;;
73585;SDS011;61865;50.232;18.614;2022-12-07T12:56:48;9.38;;;6.15;;
73585;SDS011;61865;50.232;18.614;2022-12-07T12:59:26;7.78;;;5.65;;
73585;SDS011;61865;50.232;18.614;2022-12-07T13:01:52;11.50;;;6.40;;
73585;SDS011;61865;50.232;18.614;2022-12-07T13:04:17;13.73;;;6.93;;
73585;SDS011;61865;50.232;18.614;2022-12-07T13:06:48;8.82;;;6.13;;
73585;SDS011;61865;50.232;18.614;2022-12-07T13:09:17;8.77;;;6.00;;
73585;SDS011;61865;50.232;18.614;2022-12-07T13:11:43;9.52;;;6.03;;
73585;SDS011;61865;50.232;18.614;2022-12-07T13:17:02;10.52;;;6.22;;
73585;SDS011;61865;50.232;18.614;2022-12-07T13:19:52;9.43;;;5.82;;
73585;SDS011;61865;50.232;18.614;2022-12-07T13:22:34;12.75;;;6.55;;
73585;SDS011;61865;50.232;18.614;2022-12-07T13:25:19;7.97;;;5.55;;
73585;SDS011;61865;50.232;18.614;2022-12-07T13:27:52;12.75;;;6.45;;
73585;SDS011;61865;50.232;18.614;2022-12-07T13:30:19;9.35;;;6.00;;
73585;SDS011;61865;50.232;18.614;2022-12-07T13:32:45;7.85;;;5.07;;
73585;SDS011;61865;50.232;18.614;2022-12-07T13:35:32;9.80;;;4.88;;
73585;SDS011;61865;50.232;18.614;2022-12-07T13:37:57;14.27;;;7.85;;
73585;SDS011;61865;50.232;18.614;2022-12-07T13:40:20;15.85;;;8.15;;
73585;SDS011;61865;50.232;18.614;2022-12-07T13:42:43;10.48;;;6.78;;
73585;SDS011;61865;50.232;18.614;2022-12-07T13:45:19;16.60;;;10.65;;
73585;SDS011;61865;50.232;18.614;2022-12-07T13:48:05;15.55;;;10.55;;
73585;SDS011;61865;50.232;18.614;2022-12-07T13:50:32;13.77;;;8.85;;
73585;SDS011;61865;50.232;18.614;2022-12-07T13:52:54;17.50;;;12.50;;
73585;SDS011;61865;50.232;18.614;2022-12-07T13:55:17;13.73;;;8.88;;
73585;SDS011;61865;50.232;18.614;2022-12-07T13:57:39;14.43;;;8.45;;
73585;SDS011;61865;50.232;18.614;2022-12-07T14:00:02;13.80;;;9.85;;
73585;SDS011;61865;50.232;18.614;2022-12-07T14:02:29;13.70;;;8.77;;
73585;SDS011;61865;50.232;18.614;2022-12-07T14:05:05;13.25;;;8.13;;
73585;SDS011;61865;50.232;18.614;2022-12-07T14:07:29;10.68;;;6.53;;
73585;SDS011;61865;50.232;18.614;2022-12-07T14:09:55;11.43;;;6.70;;
73585;SDS011;61865;50.232;18.614;2022-12-07T14:12:18;9.82;;;6.30;;
73585;SDS011;61865;50.232;18.614;2022-12-07T14:14:46;10.20;;;7.07;;
73585;SDS011;61865;50.232;18.614;2022-12-07T14:17:11;9.93;;;6.90;;
73585;SDS011;61865;50.232;18.614;2022-12-07T14:19:40;13.30;;;7.53;;
73585;SDS011;61865;50.232;18.614;2022-12-07T14:22:15;11.07;;;6.82;;
73585;SDS011;61865;50.232;18.614;2022-12-07T14:24:42;10.70;;;5.82;;
73585;SDS011;61865;50.232;18.614;2022-12-07T14:27:05;10.38;;;5.82;;